Rickmers Seoul — V7EI5 — position and weather

sailwx.info

Track history (hours):
 
Tides and Currents Weather Stations Pressure Air Temp Water Temp Dewpoint Dewpoint Depression Visibility Wind Speed Wind Dir Waves Ship Positions

Rickmers Seoul

Last reported at 2014-Sep-16 06:33 UTC. Time now 2014-Sep-16 07:31 UTC.
Position N 38°59' E 117°45'.

Length 192.9 m; beam 27.8 m; draft 11.2 m.

Type: Ship (hazmat cat A). MMSI: 538001809.

Date/timePositionNaut miles runAvg speedWind from/ knotsBaromVisibWave heightAir tempDewpointWater temp
2014-Sep-16 06:33N 38°59' E 117°45'0 0.0
2014-Sep-16 05:33N 38°59' E 117°45'0 0.0
2014-Sep-16 04:33N 38°59' E 117°45'0 0.0
2014-Sep-16 03:33N 38°59' E 117°45'0 0.0
2014-Sep-16 02:33N 38°59' E 117°45'0 0.0
2014-Sep-16 01:33N 38°59' E 117°45'0 0.0
2014-Sep-16 00:21N 38°59' E 117°45'0 0.0
2014-Sep-15 23:09N 38°59' E 117°45'0 0.0
2014-Sep-15 22:33N 38°59' E 117°45'0 0.0
2014-Sep-15 21:33N 38°59' E 117°45'0 0.0
2014-Sep-15 20:33N 38°59' E 117°45'0 0.0
2014-Sep-15 19:33N 38°59' E 117°45'0 0.0
2014-Sep-15 16:33N 38°59' E 117°45'0 0.0
2014-Sep-15 15:27N 38°59' E 117°45'0 0.0
2014-Sep-15 14:33N 38°59' E 117°45'0 0.0
2014-Sep-15 13:27N 38°59' E 117°45'0 0.0
2014-Sep-15 12:27N 38°59' E 117°45'0 0.0
2014-Sep-15 11:33N 38°59' E 117°45'0 0.0
2014-Sep-15 10:27N 38°59' E 117°45'0 0.0
2014-Sep-15 09:15N 38°59' E 117°45'0 0.0
2014-Sep-15 08:15N 38°59' E 117°45'0 0.0
2014-Sep-15 07:33N 38°59' E 117°45'0 0.0
2014-Sep-15 06:33N 38°59' E 117°45'0 0.0
2014-Sep-15 05:33N 38°59' E 117°45'0 0.0
2014-Sep-15 04:33N 38°59' E 117°45'0 0.0
2014-Sep-15 03:27N 38°59' E 117°45'0 0.0
2014-Sep-15 02:33N 38°59' E 117°45'0 0.0
2014-Sep-15 01:33N 38°59' E 117°45'0 0.0
2014-Sep-15 00:33N 38°59' E 117°45'0 0.0
2014-Sep-14 22:33N 38°59' E 117°45'9 9.2
2014-Sep-14 21:33N 38°57' E 117°56'15310.1
2014-Sep-14 06:25N 38°32' E 121°10'1112.6
2014-Sep-14 05:33N 38°32' E 121°24'1312.9
2014-Sep-14 04:33N 38°32' E 121°41'1312.6
2014-Sep-14 03:32N 38°45' E 121°45'1310.8
2014-Sep-14 02:20N 38°58' E 121°47'4 0.3
2014-Sep-13 15:22N 39°01' E 121°45'0 0.0
2014-Sep-13 08:28N 39°01' E 121°45'0 0.0
2014-Sep-13 07:16N 39°01' E 121°45'0 0.0
2014-Sep-13 06:29N 39°01' E 121°45'0 0.1
2014-Sep-13 02:28N 39°01' E 121°45'8 8.4
2014-Sep-13 01:33N 38°54' E 121°47'10 9.8
2014-Sep-13 00:33N 38°45' E 121°52'1312.6
2014-Sep-12 23:33N 38°34' E 122°01'1712.5
2014-Sep-12 22:11N 38°20' E 122°13'2012.0
2014-Sep-12 20:33N 38°03' E 122°27'1211.5
2014-Sep-12 19:32N 37°53' E 122°34'1111.0
2014-Sep-12 18:33N 37°44' E 122°40'1010.3
2014-Sep-12 17:33N 37°35' E 122°47'1010.3
2014-Sep-12 16:33N 37°25' E 122°52'1111.3
2014-Sep-12 15:33N 37°14' E 122°53'1212.4
2014-Sep-12 14:33N 37°02' E 122°53'1313.0
2014-Sep-12 13:32N 36°49' E 122°54'21512.7
2014-Sep-11 20:33N 33°13' E 122°54'1413.9
2014-Sep-11 19:33N 32°59' E 122°54'2814.3
2014-Sep-11 17:33N 32°31' E 122°53'1414.2
2014-Sep-11 16:33N 32°17' E 122°53'1414.1
2014-Sep-11 15:33N 32°03' E 122°49'1413.6
2014-Sep-11 14:33N 31°50' E 122°46'1312.2
2014-Sep-11 13:29N 31°37' E 122°42'1211.8
2014-Sep-11 12:31N 31°26' E 122°40'1111.7
2014-Sep-11 11:32N 31°15' E 122°34'10 9.8
2014-Sep-11 10:33N 31°06' E 122°33'4214.0
2014-Sep-11 07:33N 31°18' E 121°46'1212.0
2014-Sep-11 06:33N 31°24' E 121°34'1110.1
2014-Sep-11 05:31N 31°30' E 121°23'0 0.4
2014-Sep-11 04:32N 31°30' E 121°23'0 0.0
2014-Sep-11 03:26N 31°30' E 121°23'0 0.0
2014-Sep-11 02:26N 31°30' E 121°23'0 0.0
2014-Sep-11 00:32N 31°30' E 121°23'0 0.0
2014-Sep-10 23:32N 31°30' E 121°23'0 0.0
2014-Sep-10 21:26N 31°30' E 121°23'0 0.0
2014-Sep-10 19:08N 31°30' E 121°23'0 0.0
2014-Sep-10 17:32N 31°30' E 121°23'0 0.0
2014-Sep-10 16:26N 31°30' E 121°23'0 0.0
2014-Sep-10 15:14N 31°30' E 121°23'0 0.1
2014-Sep-10 14:26N 31°30' E 121°23'0 0.1
2014-Sep-10 13:20N 31°30' E 121°23'0 0.0
2014-Sep-10 12:20N 31°30' E 121°23'0 0.0
2014-Sep-10 11:26N 31°30' E 121°23'0 0.0
2014-Sep-10 10:26N 31°30' E 121°23'0 0.0
2014-Sep-10 08:14N 31°30' E 121°23'0 0.0
2014-Sep-10 06:20N 31°30' E 121°23'0 0.0
2014-Sep-10 05:26N 31°30' E 121°23'0 0.0
2014-Sep-10 04:26N 31°30' E 121°23'0 0.0
2014-Sep-10 03:20N 31°30' E 121°23'0 0.0
2014-Sep-10 02:32N 31°30' E 121°23'0 0.0
2014-Sep-10 01:14N 31°30' E 121°23'0 0.0
2014-Sep-09 22:32N 31°30' E 121°23'0 0.0
2014-Sep-09 20:20N 31°30' E 121°23'0 0.0
2014-Sep-09 19:32N 31°30' E 121°23'0 0.1
2014-Sep-09 18:14N 31°30' E 121°23'0 0.2
2014-Sep-09 17:33N 31°30' E 121°23'2 2.3
2014-Sep-09 16:33N 31°29' E 121°25'9 9.0
2014-Sep-09 15:34N 31°24' E 121°34'10 9.7
2014-Sep-09 14:33N 31°19' E 121°44'88 2.5
2014-Sep-08 02:29N 30°46' E 123°20'2116.0
2014-Sep-08 01:11N 30°26' E 123°21'1219.2
2014-Sep-08 00:33N 30°14' E 123°17'1615.7
2014-Sep-07 23:33N 29°59' E 123°11'2014.5
2014-Sep-07 22:12N 29°41' E 123°04'913.9
2014-Sep-07 21:33N 29°32' E 123°01'2014.3
2014-Sep-07 20:09N 29°13' E 122°54'2414.4
2014-Sep-07 18:27N 28°50' E 122°45'35015.1
2014-Sep-06 19:14N 24°08' E 118°53'2615.4
2014-Sep-06 17:33N 23°51' E 118°32'4514.9
2014-Sep-06 14:33N 23°22' E 117°55'1514.7
2014-Sep-06 13:32N 23°13' E 117°42'1616.2
2014-Sep-06 12:33N 23°03' E 117°29'1615.8
2014-Sep-06 11:33N 22°52' E 117°17'  
Track history (hours):
 
Tides and Currents Weather Stations Pressure Air Temp Water Temp Dewpoint Dewpoint Depression Visibility Wind Speed Wind Dir Waves Ship Positions

Rickmers Seoul

Last reported at 2014-Sep-16 06:33 UTC. Time now 2014-Sep-16 07:31 UTC.
Position N 38°59' E 117°45'.

Length 192.9 m; beam 27.8 m; draft 11.2 m.

Type: Ship (hazmat cat A). MMSI: 538001809.

Date/timePositionNaut miles runAvg speedWind from/ knotsBaromVisibWave heightAir tempDewpointWater temp
2014-Sep-16 06:33N 38°59' E 117°45'0 0.0
2014-Sep-16 05:33N 38°59' E 117°45'0 0.0
2014-Sep-16 04:33N 38°59' E 117°45'0 0.0
2014-Sep-16 03:33N 38°59' E 117°45'0 0.0
2014-Sep-16 02:33N 38°59' E 117°45'0 0.0
2014-Sep-16 01:33N 38°59' E 117°45'0 0.0
2014-Sep-16 00:21N 38°59' E 117°45'0 0.0
2014-Sep-15 23:09N 38°59' E 117°45'0 0.0
2014-Sep-15 22:33N 38°59' E 117°45'0 0.0
2014-Sep-15 21:33N 38°59' E 117°45'0 0.0
2014-Sep-15 20:33N 38°59' E 117°45'0 0.0
2014-Sep-15 19:33N 38°59' E 117°45'0 0.0
2014-Sep-15 16:33N 38°59' E 117°45'0 0.0
2014-Sep-15 15:27N 38°59' E 117°45'0 0.0
2014-Sep-15 14:33N 38°59' E 117°45'0 0.0
2014-Sep-15 13:27N 38°59' E 117°45'0 0.0
2014-Sep-15 12:27N 38°59' E 117°45'0 0.0
2014-Sep-15 11:33N 38°59' E 117°45'0 0.0
2014-Sep-15 10:27N 38°59' E 117°45'0 0.0
2014-Sep-15 09:15N 38°59' E 117°45'0 0.0
2014-Sep-15 08:15N 38°59' E 117°45'0 0.0
2014-Sep-15 07:33N 38°59' E 117°45'0 0.0
2014-Sep-15 06:33N 38°59' E 117°45'0 0.0
2014-Sep-15 05:33N 38°59' E 117°45'0 0.0
2014-Sep-15 04:33N 38°59' E 117°45'0 0.0
2014-Sep-15 03:27N 38°59' E 117°45'0 0.0
2014-Sep-15 02:33N 38°59' E 117°45'0 0.0
2014-Sep-15 01:33N 38°59' E 117°45'0 0.0
2014-Sep-15 00:33N 38°59' E 117°45'0 0.0
2014-Sep-14 22:33N 38°59' E 117°45'9 9.2
2014-Sep-14 21:33N 38°57' E 117°56'15310.1
2014-Sep-14 06:25N 38°32' E 121°10'1112.6
2014-Sep-14 05:33N 38°32' E 121°24'1312.9
2014-Sep-14 04:33N 38°32' E 121°41'1312.6
2014-Sep-14 03:32N 38°45' E 121°45'1310.8
2014-Sep-14 02:20N 38°58' E 121°47'4 0.3
2014-Sep-13 15:22N 39°01' E 121°45'0 0.0
2014-Sep-13 08:28N 39°01' E 121°45'0 0.0
2014-Sep-13 07:16N 39°01' E 121°45'0 0.0
2014-Sep-13 06:29N 39°01' E 121°45'0 0.1
2014-Sep-13 02:28N 39°01' E 121°45'8 8.4
2014-Sep-13 01:33N 38°54' E 121°47'10 9.8
2014-Sep-13 00:33N 38°45' E 121°52'1312.6
2014-Sep-12 23:33N 38°34' E 122°01'1712.5
2014-Sep-12 22:11N 38°20' E 122°13'2012.0
2014-Sep-12 20:33N 38°03' E 122°27'1211.5
2014-Sep-12 19:32N 37°53' E 122°34'1111.0
2014-Sep-12 18:33N 37°44' E 122°40'1010.3
2014-Sep-12 17:33N 37°35' E 122°47'1010.3
2014-Sep-12 16:33N 37°25' E 122°52'1111.3
2014-Sep-12 15:33N 37°14' E 122°53'1212.4
2014-Sep-12 14:33N 37°02' E 122°53'1313.0
2014-Sep-12 13:32N 36°49' E 122°54'21512.7
2014-Sep-11 20:33N 33°13' E 122°54'1413.9
2014-Sep-11 19:33N 32°59' E 122°54'2814.3
2014-Sep-11 17:33N 32°31' E 122°53'1414.2
2014-Sep-11 16:33N 32°17' E 122°53'1414.1
2014-Sep-11 15:33N 32°03' E 122°49'1413.6
2014-Sep-11 14:33N 31°50' E 122°46'1312.2
2014-Sep-11 13:29N 31°37' E 122°42'1211.8
2014-Sep-11 12:31N 31°26' E 122°40'1111.7
2014-Sep-11 11:32N 31°15' E 122°34'10 9.8
2014-Sep-11 10:33N 31°06' E 122°33'4214.0
2014-Sep-11 07:33N 31°18' E 121°46'1212.0
2014-Sep-11 06:33N 31°24' E 121°34'1110.1
2014-Sep-11 05:31N 31°30' E 121°23'0 0.4
2014-Sep-11 04:32N 31°30' E 121°23'0 0.0
2014-Sep-11 03:26N 31°30' E 121°23'0 0.0
2014-Sep-11 02:26N 31°30' E 121°23'0 0.0
2014-Sep-11 00:32N 31°30' E 121°23'0 0.0
2014-Sep-10 23:32N 31°30' E 121°23'0 0.0
2014-Sep-10 21:26N 31°30' E 121°23'0 0.0
2014-Sep-10 19:08N 31°30' E 121°23'0 0.0
2014-Sep-10 17:32N 31°30' E 121°23'0 0.0
2014-Sep-10 16:26N 31°30' E 121°23'0 0.0
2014-Sep-10 15:14N 31°30' E 121°23'0 0.1
2014-Sep-10 14:26N 31°30' E 121°23'0 0.1
2014-Sep-10 13:20N 31°30' E 121°23'0 0.0
2014-Sep-10 12:20N 31°30' E 121°23'0 0.0
2014-Sep-10 11:26N 31°30' E 121°23'0 0.0
2014-Sep-10 10:26N 31°30' E 121°23'0 0.0
2014-Sep-10 08:14N 31°30' E 121°23'0 0.0
2014-Sep-10 06:20N 31°30' E 121°23'0 0.0
2014-Sep-10 05:26N 31°30' E 121°23'0 0.0
2014-Sep-10 04:26N 31°30' E 121°23'0 0.0
2014-Sep-10 03:20N 31°30' E 121°23'0 0.0
2014-Sep-10 02:32N 31°30' E 121°23'0 0.0
2014-Sep-10 01:14N 31°30' E 121°23'0 0.0
2014-Sep-09 22:32N 31°30' E 121°23'0 0.0
2014-Sep-09 20:20N 31°30' E 121°23'0 0.0
2014-Sep-09 19:32N 31°30' E 121°23'0 0.1
2014-Sep-09 18:14N 31°30' E 121°23'0 0.2
2014-Sep-09 17:33N 31°30' E 121°23'2 2.3
2014-Sep-09 16:33N 31°29' E 121°25'9 9.0
2014-Sep-09 15:34N 31°24' E 121°34'10 9.7
2014-Sep-09 14:33N 31°19' E 121°44'88 2.5
2014-Sep-08 02:29N 30°46' E 123°20'2116.0
2014-Sep-08 01:11N 30°26' E 123°21'1219.2
2014-Sep-08 00:33N 30°14' E 123°17'1615.7
2014-Sep-07 23:33N 29°59' E 123°11'2014.5
2014-Sep-07 22:12N 29°41' E 123°04'913.9
2014-Sep-07 21:33N 29°32' E 123°01'2014.3
2014-Sep-07 20:09N 29°13' E 122°54'2414.4
2014-Sep-07 18:27N 28°50' E 122°45'35015.1
2014-Sep-06 19:14N 24°08' E 118°53'2615.4
2014-Sep-06 17:33N 23°51' E 118°32'4514.9
2014-Sep-06 14:33N 23°22' E 117°55'1514.7
2014-Sep-06 13:32N 23°13' E 117°42'1616.2
2014-Sep-06 12:33N 23°03' E 117°29'1615.8
2014-Sep-06 11:33N 22°52' E 117°17'  

Dump ship's entire track history